Time;durP1;ratioP1;P1;durP2;ratioP2;P2;SDS_P1;SDS_P2;PMS_P1;PMS_P2;Temp;Humidity;BMP_temperature;BMP_pressure;BME280_temperature;BME280_humidity;BME280_pressure;Samples;Min_cycle;Max_cycle;Signal;HPM_P1;HPM_P2
2021/05/25 00:02:13;;;;;;;3.20;1.30;;;10.60;99.90;;;;;;5088379;28;21299;-72
2021/05/25 00:04:59;;;;;;;3.50;1.47;;;10.70;99.90;;;;;;5082578;28;20478;-71
2021/05/25 00:07:45;;;;;;;1.70;1.00;;;10.80;99.90;;;;;;5082831;28;20445;-71
2021/05/25 00:10:32;;;;;;;3.60;1.33;;;10.60;99.90;;;;;;5087847;28;20436;-71
2021/05/25 00:13:17;;;;;;;2.93;1.40;;;10.70;99.90;;;;;;5085779;28;20420;-72
2021/05/25 00:16:03;;;;;;;2.00;1.07;;;10.80;99.90;;;;;;5084423;28;20944;-71
2021/05/25 00:18:48;;;;;;;3.70;1.27;;;10.80;99.90;;;;;;5079011;28;20452;-72
2021/05/25 00:21:32;;;;;;;2.47;0.97;;;10.90;99.90;;;;;;5085920;28;20440;-71
2021/05/25 00:24:19;;;;;;;2.10;0.90;;;10.90;99.90;;;;;;5082488;28;20476;-69
2021/05/25 00:27:04;;;;;;;8.90;1.37;;;11.00;99.90;;;;;;5082735;28;20417;-69
2021/05/25 00:29:49;;;;;;;2.80;1.27;;;11.00;99.90;;;;;;5076957;28;20482;-69
2021/05/25 00:32:35;;;;;;;2.07;1.20;;;11.00;99.90;;;;;;5090157;28;21065;-69
2021/05/25 00:35:20;;;;;;;3.40;1.20;;;11.10;99.90;;;;;;5077633;28;20760;-69
2021/05/25 00:38:05;;;;;;;4.33;1.50;;;11.00;99.90;;;;;;5072546;28;20465;-69
2021/05/25 00:40:51;;;;;;;4.63;1.30;;;11.00;99.90;;;;;;5077360;28;20519;-69
2021/05/25 00:43:36;;;;;;;3.50;1.10;;;10.90;99.90;;;;;;5083839;28;20793;-69
2021/05/25 00:46:21;;;;;;;6.40;1.00;;;10.90;99.90;;;;;;5082983;28;20426;-69
2021/05/25 00:49:06;;;;;;;1.90;1.00;;;10.80;99.90;;;;;;5081610;28;20470;-71
2021/05/25 00:51:52;;;;;;;2.50;0.87;;;10.90;99.90;;;;;;5085983;28;20428;-71
2021/05/25 00:54:37;;;;;;;1.90;1.00;;;10.70;99.90;;;;;;5082526;28;22459;-72
2021/05/25 00:57:23;;;;;;;2.77;1.00;;;10.80;99.90;;;;;;5078012;28;20445;-71
2021/05/25 01:00:09;;;;;;;3.70;0.93;;;10.90;99.90;;;;;;5082718;28;20540;-72
2021/05/25 01:02:55;;;;;;;3.00;0.93;;;10.80;99.90;;;;;;5081849;28;20424;-71
2021/05/25 01:05:40;;;;;;;4.23;1.00;;;10.80;99.90;;;;;;5088947;28;20477;-71
2021/05/25 01:08:25;;;;;;;2.27;1.23;;;11.00;99.90;;;;;;5092300;28;20426;-71
2021/05/25 01:11:11;;;;;;;5.63;1.23;;;10.90;99.90;;;;;;5083012;28;20497;-72
2021/05/25 01:13:58;;;;;;;3.23;1.30;;;11.00;99.90;;;;;;5086530;28;20516;-72
2021/05/25 01:16:43;;;;;;;3.07;0.77;;;11.10;99.90;;;;;;5084399;28;20438;-72
2021/05/25 01:19:28;;;;;;;4.57;1.00;;;10.90;99.90;;;;;;5082318;28;21002;-71
2021/05/25 01:22:15;;;;;;;4.47;1.10;;;10.90;99.90;;;;;;5087720;28;20420;-72
2021/05/25 01:25:00;;;;;;;4.20;1.00;;;10.80;99.90;;;;;;5084575;28;20444;-71
2021/05/25 01:27:51;;;;;;;4.13;1.07;;;10.90;99.90;;;;;;5085958;28;20469;-72
2021/05/25 01:30:38;;;;;;;3.17;0.70;;;10.90;99.90;;;;;;5083099;28;20528;-70
2021/05/25 01:33:26;;;;;;;1.70;0.70;;;11.00;99.90;;;;;;5087116;28;20572;-71
2021/05/25 01:36:13;;;;;;;4.97;0.80;;;11.00;99.90;;;;;;5081437;28;20505;-71
2021/05/25 01:38:59;;;;;;;3.17;0.93;;;10.90;99.90;;;;;;5079223;28;20396;-72
2021/05/25 01:41:44;;;;;;;2.70;1.07;;;10.80;99.90;;;;;;5075492;28;20433;-70
2021/05/25 01:44:29;;;;;;;2.20;0.90;;;10.90;99.90;;;;;;5081119;28;20441;-70
2021/05/25 01:47:17;;;;;;;4.93;1.17;;;11.00;99.90;;;;;;5089861;28;20813;-71
2021/05/25 01:53:05;;;;;;;4.43;2.17;;;11.00;99.90;;;;;;5079276;28;20397;-71
2021/05/25 01:55:52;;;;;;;2.63;1.10;;;11.00;99.90;;;;;;5089389;28;20431;-71
2021/05/25 01:58:38;;;;;;;2.57;1.10;;;11.10;99.90;;;;;;5081623;28;20415;-71
2021/05/25 02:01:23;;;;;;;2.07;0.83;;;11.00;99.90;;;;;;5087287;28;20474;-70
2021/05/25 02:04:09;;;;;;;3.37;1.10;;;11.00;99.90;;;;;;5083261;28;20944;-70
2021/05/25 02:06:54;;;;;;;4.27;1.00;;;10.70;99.90;;;;;;5082546;28;20797;-71
2021/05/25 02:09:39;;;;;;;5.20;1.40;;;10.70;99.90;;;;;;5081719;28;20462;-71
2021/05/25 02:12:25;;;;;;;2.03;0.97;;;10.50;99.90;;;;;;5082816;28;20447;-71
2021/05/25 02:15:11;;;;;;;2.40;1.17;;;10.60;99.90;;;;;;5082445;28;20433;-72
2021/05/25 02:18:03;;;;;;;3.10;1.10;;;10.60;99.90;;;;;;5083385;28;20937;-70
2021/05/25 02:20:50;;;;;;;3.53;1.00;;;10.60;99.90;;;;;;5082867;28;20454;-71
2021/05/25 02:23:36;;;;;;;2.37;0.90;;;10.60;99.90;;;;;;5081250;28;20530;-71
2021/05/25 02:26:20;;;;;;;2.40;0.90;;;10.70;99.90;;;;;;5080777;28;20535;-71
2021/05/25 02:29:07;;;;;;;2.80;1.27;;;10.60;99.90;;;;;;5087670;28;20981;-72
2021/05/25 02:31:52;;;;;;;7.47;1.53;;;10.60;99.90;;;;;;5084731;28;20425;-71
2021/05/25 02:34:36;;;;;;;13.17;0.90;;;10.70;99.90;;;;;;5078563;28;20458;-71
2021/05/25 02:37:22;;;;;;;3.97;1.20;;;10.70;99.90;;;;;;5075729;28;20974;-71
2021/05/25 02:40:08;;;;;;;2.50;1.00;;;10.60;99.90;;;;;;5089572;28;20466;-70
2021/05/25 02:42:54;;;;;;;2.10;1.00;;;10.60;99.90;;;;;;5084598;28;20466;-70
2021/05/25 02:45:41;;;;;;;3.60;0.97;;;10.60;99.90;;;;;;5083171;28;20469;-71
2021/05/25 02:48:27;;;;;;;4.30;1.07;;;10.60;99.90;;;;;;5087532;28;20587;-71
2021/05/25 02:51:12;;;;;;;6.50;1.17;;;10.50;99.90;;;;;;5085412;28;20486;-71
2021/05/25 02:53:57;;;;;;;2.20;0.90;;;10.70;99.90;;;;;;5079762;28;20840;-71
2021/05/25 02:56:42;;;;;;;5.23;1.17;;;10.60;99.90;;;;;;5081061;28;20488;-71
2021/05/25 02:59:27;;;;;;;3.77;1.13;;;10.50;99.90;;;;;;5084571;28;20449;-71
2021/05/25 03:02:13;;;;;;;2.97;1.10;;;10.50;99.90;;;;;;5074022;28;20433;-70
2021/05/25 03:04:58;;;;;;;3.70;1.00;;;10.50;99.90;;;;;;5082025;28;20983;-71
2021/05/25 03:07:44;;;;;;;4.10;1.40;;;10.40;99.90;;;;;;5088660;28;20448;-71
2021/05/25 03:10:31;;;;;;;8.60;1.20;;;10.40;99.90;;;;;;5086449;28;20942;-71
2021/05/25 03:13:17;;;;;;;2.53;1.07;;;10.40;99.90;;;;;;5092302;28;21126;-70
2021/05/25 03:16:02;;;;;;;3.60;1.30;;;10.50;99.90;;;;;;5084329;28;20953;-71
2021/05/25 03:18:48;;;;;;;1.80;0.83;;;10.50;99.90;;;;;;5081250;28;20437;-71
2021/05/25 03:21:33;;;;;;;3.07;1.30;;;10.60;99.90;;;;;;5089161;28;20443;-70
2021/05/25 03:24:18;;;;;;;6.33;1.30;;;10.50;99.90;;;;;;5094456;28;20414;-71
2021/05/25 03:27:03;;;;;;;10.20;1.60;;;10.50;99.90;;;;;;5085753;28;20403;-71
2021/05/25 03:29:48;;;;;;;5.70;1.63;;;10.50;99.90;;;;;;5085926;28;20507;-71
2021/05/25 03:32:34;;;;;;;8.17;1.60;;;10.60;99.90;;;;;;5083732;28;20537;-72
2021/05/25 03:35:22;;;;;;;2.97;1.20;;;10.70;99.90;;;;;;5086543;28;20462;-71
2021/05/25 03:38:07;;;;;;;5.20;1.20;;;10.70;99.90;;;;;;5087954;28;20993;-71
2021/05/25 03:40:52;;;;;;;3.83;1.10;;;10.60;99.90;;;;;;5082386;28;20409;-71
2021/05/25 03:43:37;;;;;;;2.80;1.17;;;10.60;99.90;;;;;;5079819;28;20450;-70
2021/05/25 03:46:22;;;;;;;2.53;0.90;;;10.50;99.90;;;;;;5082336;28;20562;-72
2021/05/25 03:49:08;;;;;;;3.20;1.00;;;10.60;99.90;;;;;;5081647;28;21001;-72
2021/05/25 03:51:54;;;;;;;5.43;1.00;;;10.60;99.90;;;;;;5085632;28;20457;-70
2021/05/25 03:54:44;;;;;;;6.73;1.27;;;10.40;99.90;;;;;;5088532;28;20439;-71
2021/05/25 04:00:32;;;;;;;2.40;1.20;;;10.40;99.90;;;;;;5082681;28;20461;-72
2021/05/25 04:03:18;;;;;;;7.67;1.17;;;10.40;99.90;;;;;;5090859;28;20979;-71
2021/05/25 04:06:03;;;;;;;2.37;0.90;;;10.20;99.90;;;;;;5080227;28;20457;-71
2021/05/25 04:08:49;;;;;;;3.13;1.07;;;10.30;99.90;;;;;;5086919;28;20966;-72
2021/05/25 04:11:35;;;;;;;2.53;0.90;;;10.40;99.90;;;;;;5081214;28;20972;-71
2021/05/25 04:14:20;;;;;;;3.17;1.27;;;10.50;99.90;;;;;;5081638;28;20424;-71
2021/05/25 04:17:05;;;;;;;5.83;1.20;;;10.30;99.90;;;;;;5090528;28;21010;-71
2021/05/25 04:19:50;;;;;;;5.13;1.37;;;10.40;99.90;;;;;;5080492;28;20511;-71
2021/05/25 04:22:36;;;;;;;2.20;0.90;;;10.40;99.90;;;;;;5083813;28;20470;-69
2021/05/25 04:25:22;;;;;;;5.10;1.30;;;10.40;99.90;;;;;;5087151;28;20448;-72
2021/05/25 04:28:07;;;;;;;5.60;1.23;;;10.40;99.90;;;;;;5081463;28;20415;-71
2021/05/25 04:30:53;;;;;;;5.70;1.27;;;10.50;99.90;;;;;;5081155;28;20568;-72
2021/05/25 04:33:38;;;;;;;4.00;1.07;;;10.50;99.90;;;;;;5084414;28;20487;-71
2021/05/25 04:36:23;;;;;;;8.03;1.70;;;10.50;99.90;;;;;;5075396;28;20420;-71
2021/05/25 04:39:08;;;;;;;4.53;1.07;;;10.60;99.90;;;;;;5073173;28;20414;-70
2021/05/25 04:41:54;;;;;;;5.57;1.47;;;10.60;99.90;;;;;;5081011;28;20936;-71
2021/05/25 04:44:39;;;;;;;4.47;1.20;;;10.70;99.90;;;;;;5074742;28;20990;-72
2021/05/25 04:47:24;;;;;;;3.87;1.30;;;10.70;99.90;;;;;;5085082;28;20462;-70
2021/05/25 04:50:12;;;;;;;3.30;1.00;;;10.60;99.90;;;;;;5081053;28;20460;-71
2021/05/25 04:52:57;;;;;;;3.90;1.20;;;10.60;99.90;;;;;;5081856;28;20845;-71
2021/05/25 04:55:42;;;;;;;7.23;2.63;;;10.50;99.90;;;;;;5084415;28;20452;-71
2021/05/25 04:58:28;;;;;;;4.77;1.50;;;10.50;99.90;;;;;;5083336;28;20422;-71
2021/05/25 05:01:12;;;;;;;8.13;1.70;;;10.50;99.90;;;;;;5090225;28;20550;-71
2021/05/25 05:03:58;;;;;;;3.47;1.60;;;10.50;99.90;;;;;;5089067;28;20482;-72
2021/05/25 05:06:43;;;;;;;2.93;1.20;;;10.70;99.90;;;;;;5084906;28;20420;-72
2021/05/25 05:09:28;;;;;;;2.43;0.90;;;10.80;99.90;;;;;;5085044;28;20521;-71
2021/05/25 05:12:13;;;;;;;8.33;1.10;;;10.70;99.90;;;;;;5091241;28;21001;-71
2021/05/25 05:14:59;;;;;;;2.23;0.90;;;10.80;99.90;;;;;;5085772;28;20430;-71
2021/05/25 05:17:47;;;;;;;3.50;1.00;;;10.90;99.90;;;;;;5080497;28;20442;-72
2021/05/25 05:20:32;;;;;;;3.00;1.33;;;11.00;99.90;;;;;;5090508;28;20504;-72
2021/05/25 05:23:17;;;;;;;2.47;0.90;;;11.00;99.90;;;;;;5090760;28;20445;-71
2021/05/25 05:26:04;;;;;;;6.33;1.10;;;11.00;99.90;;;;;;5071667;28;20833;-69
2021/05/25 05:28:49;;;;;;;4.20;1.30;;;10.90;99.90;;;;;;5079217;28;20447;-68
2021/05/25 05:31:35;;;;;;;3.57;0.87;;;10.90;99.90;;;;;;5087288;28;20461;-69
2021/05/25 05:34:20;;;;;;;3.27;1.20;;;10.70;99.90;;;;;;5084811;28;20978;-71
2021/05/25 05:37:05;;;;;;;6.87;1.40;;;10.80;99.90;;;;;;5076920;28;20437;-71
2021/05/25 05:39:50;;;;;;;7.90;1.23;;;10.80;99.90;;;;;;5080028;28;20410;-71
2021/05/25 05:42:35;;;;;;;2.33;0.80;;;10.80;99.90;;;;;;5086522;28;21013;-70
2021/05/25 05:45:21;;;;;;;3.50;1.27;;;10.70;99.90;;;;;;5088503;28;20493;-70
2021/05/25 05:48:08;;;;;;;4.43;1.20;;;10.60;99.90;;;;;;5087944;28;20445;-70
2021/05/25 05:50:53;;;;;;;3.40;0.80;;;10.60;99.90;;;;;;5089552;28;20448;-71
2021/05/25 05:53:38;;;;;;;2.27;1.03;;;10.60;99.90;;;;;;5080179;28;20434;-70
2021/05/25 05:56:24;;;;;;;4.83;1.13;;;10.50;99.90;;;;;;5088961;28;20419;-71
2021/05/25 05:59:09;;;;;;;4.30;1.43;;;10.40;99.90;;;;;;5084879;28;20492;-71
2021/05/25 06:01:54;;;;;;;8.57;1.50;;;10.50;99.90;;;;;;5080883;28;20485;-69
2021/05/25 06:04:40;;;;;;;3.27;1.20;;;10.60;99.90;;;;;;5076461;28;20811;-70
2021/05/25 06:07:25;;;;;;;3.30;1.50;;;10.60;99.90;;;;;;5081221;28;20821;-71
2021/05/25 06:10:11;;;;;;;4.23;1.23;;;10.50;99.90;;;;;;5092098;28;20819;-71
2021/05/25 06:12:56;;;;;;;3.07;1.07;;;10.50;99.90;;;;;;5084511;28;20564;-71
2021/05/25 06:15:41;;;;;;;3.20;0.90;;;10.60;99.90;;;;;;5083654;28;20421;-71
2021/05/25 06:18:27;;;;;;;11.60;1.37;;;10.60;99.90;;;;;;5089853;28;20420;-71
2021/05/25 06:21:13;;;;;;;2.50;1.00;;;10.50;99.90;;;;;;5074900;28;20470;-71
2021/05/25 06:23:57;;;;;;;4.03;1.00;;;10.50;99.90;;;;;;5085980;28;20424;-71
2021/05/25 06:26:43;;;;;;;7.37;1.40;;;10.60;99.90;;;;;;5091307;28;20436;-71
2021/05/25 06:29:28;;;;;;;6.33;1.70;;;10.60;99.90;;;;;;5085495;28;20454;-71
2021/05/25 06:32:13;;;;;;;3.20;1.00;;;10.60;99.90;;;;;;5085289;28;20517;-70
2021/05/25 06:34:58;;;;;;;3.63;1.43;;;10.70;99.90;;;;;;5085145;28;20457;-71
2021/05/25 06:37:44;;;;;;;2.87;1.00;;;10.80;99.90;;;;;;5079623;28;20442;-71
2021/05/25 06:40:30;;;;;;;2.70;1.23;;;10.80;99.90;;;;;;5074939;28;20604;-70
2021/05/25 06:43:15;;;;;;;3.77;1.30;;;10.70;99.90;;;;;;5083069;28;20465;-71
2021/05/25 06:46:00;;;;;;;3.00;1.10;;;10.70;99.90;;;;;;5086768;28;20570;-70
2021/05/25 06:48:46;;;;;;;6.37;1.23;;;10.60;99.90;;;;;;5084822;28;20454;-71
2021/05/25 06:51:31;;;;;;;7.20;1.20;;;10.60;99.90;;;;;;5085867;28;20455;-71
2021/05/25 06:54:16;;;;;;;5.73;1.30;;;10.70;99.90;;;;;;5092266;28;20511;-69
2021/05/25 06:57:01;;;;;;;2.40;1.23;;;10.80;99.90;;;;;;5094514;28;20438;-70
2021/05/25 06:59:46;;;;;;;1.80;0.80;;;10.70;99.90;;;;;;5081092;28;20469;-71
2021/05/25 07:02:31;;;;;;;4.40;1.03;;;10.70;99.90;;;;;;5083839;28;20420;-71
2021/05/25 07:05:16;;;;;;;4.20;1.20;;;10.70;99.90;;;;;;5091280;28;20529;-70
2021/05/25 07:08:03;;;;;;;5.13;0.93;;;10.60;99.90;;;;;;5091045;28;20416;-71
2021/05/25 07:10:49;;;;;;;2.73;1.00;;;10.60;99.90;;;;;;5090749;28;20505;-70
2021/05/25 07:13:34;;;;;;;2.90;0.90;;;10.60;99.90;;;;;;5094193;28;20462;-70
2021/05/25 07:16:19;;;;;;;6.70;1.00;;;10.70;99.90;;;;;;5078480;28;20948;-70
2021/05/25 07:19:05;;;;;;;1.90;1.20;;;10.60;99.90;;;;;;5090213;28;20419;-69
2021/05/25 07:21:50;;;;;;;1.77;0.80;;;10.60;99.90;;;;;;5082533;28;20917;-71
2021/05/25 07:24:35;;;;;;;4.40;1.20;;;10.60;99.90;;;;;;5083975;28;20419;-70
2021/05/25 07:27:21;;;;;;;2.67;1.20;;;10.60;99.90;;;;;;5091904;28;20578;-71
2021/05/25 07:30:08;;;;;;;8.13;1.10;;;10.50;99.90;;;;;;5073915;28;20494;-70
2021/05/25 07:32:53;;;;;;;9.73;1.40;;;10.50;99.90;;;;;;5083346;28;20466;-70
2021/05/25 07:35:38;;;;;;;7.00;1.37;;;10.50;99.90;;;;;;5080421;28;20487;-71
2021/05/25 07:38:23;;;;;;;4.67;1.33;;;10.40;99.90;;;;;;5088322;28;20448;-71
2021/05/25 07:41:08;;;;;;;3.60;1.30;;;10.40;99.90;;;;;;5093443;28;20573;-71
2021/05/25 07:43:54;;;;;;;4.27;1.00;;;10.50;99.90;;;;;;5080693;28;20445;-70
2021/05/25 07:46:39;;;;;;;3.30;1.30;;;10.60;99.90;;;;;;5082864;28;20432;-70
2021/05/25 07:49:24;;;;;;;6.53;1.00;;;10.50;99.90;;;;;;5083926;28;20481;-71
2021/05/25 07:52:09;;;;;;;3.20;1.47;;;10.50;99.90;;;;;;5088497;28;20414;-71
2021/05/25 07:54:54;;;;;;;6.53;1.10;;;10.50;99.90;;;;;;5086673;28;20454;-70
2021/05/25 07:57:40;;;;;;;3.27;1.13;;;10.40;99.90;;;;;;5082703;28;20492;-70
2021/05/25 08:00:27;;;;;;;3.70;1.23;;;10.40;99.90;;;;;;5090922;28;20443;-71
2021/05/25 08:03:13;;;;;;;4.80;1.03;;;10.30;99.90;;;;;;5091027;28;20440;-71
2021/05/25 08:05:59;;;;;;;4.63;1.30;;;10.40;99.90;;;;;;5077495;28;20458;-70
2021/05/25 08:08:44;;;;;;;2.07;1.03;;;10.40;99.90;;;;;;5082624;28;20422;-70
2021/05/25 08:11:29;;;;;;;1.60;0.80;;;10.40;99.90;;;;;;5084844;28;20425;-70
2021/05/25 08:14:14;;;;;;;2.40;1.10;;;10.40;99.90;;;;;;5092183;28;20445;-70
2021/05/25 08:17:06;;;;;;;2.50;1.07;;;10.50;99.90;;;;;;5081582;28;20513;-70
2021/05/25 08:19:52;;;;;;;4.77;0.97;;;10.60;99.90;;;;;;5087665;28;20476;-71
2021/05/25 08:22:38;;;;;;;2.77;0.87;;;10.60;99.90;;;;;;5079622;28;20691;-71
2021/05/25 08:25:26;;;;;;;1.60;0.70;;;10.60;99.90;;;;;;5087923;28;20444;-71
2021/05/25 08:28:13;;;;;;;4.83;1.40;;;10.70;99.90;;;;;;5092134;28;20423;-71
2021/05/25 08:30:58;;;;;;;1.77;0.67;;;10.80;99.90;;;;;;5087578;28;20811;-70
2021/05/25 08:33:44;;;;;;;2.87;0.80;;;10.80;99.90;;;;;;5090567;28;20991;-71
2021/05/25 08:36:31;;;;;;;1.60;0.70;;;10.70;99.90;;;;;;5089007;28;20437;-71
2021/05/25 08:39:16;;;;;;;2.60;0.90;;;10.70;99.90;;;;;;5081271;28;21078;-71
2021/05/25 08:42:02;;;;;;;3.33;0.70;;;10.70;99.90;;;;;;5077232;28;20886;-71
2021/05/25 08:44:47;;;;;;;2.60;0.77;;;10.70;99.90;;;;;;5083023;28;20952;-71
2021/05/25 08:47:35;;;;;;;2.43;1.07;;;10.70;99.90;;;;;;5083239;28;20511;-71
2021/05/25 08:50:25;;;;;;;2.60;0.70;;;10.80;99.90;;;;;;5087553;28;20598;-72
2021/05/25 08:53:10;;;;;;;2.47;0.90;;;10.80;99.90;;;;;;5080521;28;20441;-72
2021/05/25 08:55:55;;;;;;;2.33;0.80;;;10.80;99.90;;;;;;5086626;28;20441;-72
2021/05/25 08:58:41;;;;;;;3.20;1.40;;;10.70;99.90;;;;;;5083451;28;20420;-72
2021/05/25 09:01:26;;;;;;;2.97;1.20;;;10.70;99.90;;;;;;5083752;28;20853;-72
2021/05/25 09:04:14;;;;;;;4.03;0.93;;;10.70;99.90;;;;;;5086560;28;20467;-72
2021/05/25 09:07:00;;;;;;;2.70;0.70;;;10.60;99.90;;;;;;5078583;28;20474;-72
2021/05/25 09:09:54;;;;;;;2.37;0.87;;;10.50;99.90;;;;;;5083292;28;20477;-70
2021/05/25 09:12:41;;;;;;;9.07;1.33;;;10.50;99.90;;;;;;5088187;28;20424;-71
2021/05/25 09:15:32;;;;;;;2.20;0.83;;;10.50;99.90;;;;;;5089392;28;20419;-71
2021/05/25 09:18:20;;;;;;;6.00;0.77;;;10.50;99.90;;;;;;5082300;28;20447;-72
2021/05/25 09:21:06;;;;;;;1.50;0.80;;;10.60;99.90;;;;;;5080041;28;20500;-71
2021/05/25 09:23:52;;;;;;;2.40;1.10;;;10.60;99.90;;;;;;5082833;28;20461;-71
2021/05/25 09:26:42;;;;;;;5.00;1.03;;;10.40;99.90;;;;;;5083285;28;20519;-71
2021/05/25 09:29:27;;;;;;;7.47;1.00;;;10.40;99.90;;;;;;5084494;28;20465;-72
2021/05/25 09:32:15;;;;;;;8.23;1.03;;;10.50;99.90;;;;;;5081822;28;20490;-70
2021/05/25 09:35:06;;;;;;;2.00;1.03;;;10.50;99.90;;;;;;5086159;28;20465;-71
2021/05/25 09:37:53;;;;;;;2.30;0.80;;;10.50;99.90;;;;;;5076745;28;20486;-72
2021/05/25 09:40:42;;;;;;;2.83;1.10;;;10.60;99.90;;;;;;5080888;28;20490;-70
2021/05/25 09:43:29;;;;;;;1.83;0.90;;;10.60;99.90;;;;;;5088864;28;20511;-72
2021/05/25 09:46:14;;;;;;;2.00;0.80;;;10.60;99.90;;;;;;5083355;28;20440;-72
2021/05/25 09:48:59;;;;;;;3.00;1.10;;;10.60;99.90;;;;;;5082273;28;20936;-71
2021/05/25 09:51:44;;;;;;;2.33;0.80;;;10.60;99.90;;;;;;5087304;28;20805;-72
2021/05/25 09:54:31;;;;;;;3.90;1.50;;;10.60;99.90;;;;;;5083718;28;20816;-72
2021/05/25 09:57:17;;;;;;;7.03;1.50;;;10.60;99.90;;;;;;5087658;28;20472;-71
2021/05/25 10:00:22;;;;;;;2.90;1.13;;;10.50;99.90;;;;;;5072524;22;21011;-75
2021/05/25 10:03:12;;;;;;;2.83;1.53;;;10.60;99.90;;;;;;5038484;28;20455;-75
2021/05/25 10:06:00;;;;;;;2.80;1.37;;;10.50;99.90;;;;;;5046455;28;20471;-75
2021/05/25 10:08:45;;;;;;;5.57;1.33;;;10.50;99.90;;;;;;5033660;28;20464;-75
2021/05/25 10:11:31;;;;;;;3.07;1.40;;;10.30;99.90;;;;;;5038718;28;20479;-75
2021/05/25 10:14:19;;;;;;;2.83;1.40;;;10.30;99.90;;;;;;5045097;28;20458;-75
2021/05/25 10:17:05;;;;;;;2.70;1.13;;;10.30;99.90;;;;;;5036332;28;20430;-73
2021/05/25 10:19:50;;;;;;;3.83;1.20;;;10.40;99.90;;;;;;5042568;28;20491;-75
2021/05/25 10:22:36;;;;;;;3.20;1.30;;;10.40;99.90;;;;;;5046006;28;20429;-75
2021/05/25 10:25:22;;;;;;;4.13;1.53;;;10.50;99.90;;;;;;5049161;28;20445;-75
2021/05/25 10:28:09;;;;;;;3.10;1.50;;;10.50;99.90;;;;;;5049259;28;20521;-75
2021/05/25 10:30:57;;;;;;;2.50;1.10;;;10.50;99.90;;;;;;5041130;28;20483;-74
2021/05/25 10:33:42;;;;;;;2.40;1.10;;;10.50;99.90;;;;;;5043604;28;20393;-74
2021/05/25 10:36:42;;;;;;;2.83;1.37;;;10.50;99.90;;;;;;5047615;28;20505;-75
2021/05/25 10:39:37;;;;;;;5.73;1.47;;;10.40;99.90;;;;;;5049218;28;20494;-74
2021/05/25 10:42:31;;;;;;;8.60;1.70;;;10.50;99.90;;;;;;5049151;28;20463;-75
2021/05/25 10:45:17;;;;;;;3.60;1.00;;;10.60;99.90;;;;;;5035581;28;21369;-74
2021/05/25 10:48:05;;;;;;;3.20;1.40;;;10.70;99.90;;;;;;5045819;28;20429;-75
2021/05/25 10:50:51;;;;;;;3.23;1.30;;;10.80;99.90;;;;;;5047693;28;20581;-75
2021/05/25 10:53:36;;;;;;;3.33;1.80;;;10.90;99.90;;;;;;5051009;28;20513;-75
2021/05/25 10:56:25;;;;;;;4.07;1.77;;;11.10;99.90;;;;;;5040147;28;20440;-75
2021/05/25 10:59:11;;;;;;;6.07;2.00;;;11.10;99.90;;;;;;5041646;28;20573;-74
2021/05/25 11:01:57;;;;;;;4.20;1.80;;;11.10;99.90;;;;;;5050780;28;20423;-75
2021/05/25 11:04:43;;;;;;;3.30;1.50;;;11.10;99.90;;;;;;5046237;28;20587;-75
2021/05/25 11:07:36;;;;;;;5.70;2.73;;;11.20;99.90;;;;;;5048968;28;20524;-75
2021/05/25 11:10:37;;;;;;;9.37;3.80;;;11.20;99.90;;;;;;5049343;28;20472;-74
2021/05/25 11:13:25;;;;;;;5.10;2.20;;;11.30;99.90;;;;;;5043818;28;20453;-75
2021/05/25 11:16:13;;;;;;;14.83;3.00;;;11.30;99.90;;;;;;5048837;28;20531;-75
2021/05/25 11:19:21;;;;;;;6.27;1.93;;;11.40;99.90;;;;;;5041250;28;20462;-75
2021/05/25 11:22:22;;;;;;;6.50;3.40;;;11.30;99.90;;;;;;5046483;28;20455;-75
2021/05/25 11:25:07;;;;;;;7.17;2.33;;;11.50;99.90;;;;;;5049173;28;20846;-75
2021/05/25 11:27:56;;;;;;;13.37;3.80;;;11.50;99.90;;;;;;5043866;28;20459;-75
2021/05/25 11:30:43;;;;;;;5.57;1.83;;;11.60;99.90;;;;;;5047517;28;20464;-75
2021/05/25 11:33:31;;;;;;;3.00;1.40;;;11.50;99.90;;;;;;5052952;28;21009;-75
2021/05/25 11:36:17;;;;;;;6.00;1.80;;;11.50;99.90;;;;;;5041909;28;21193;-75
2021/05/25 11:39:05;;;;;;;8.83;1.90;;;11.50;99.90;;;;;;5050793;28;20490;-76
2021/05/25 11:41:50;;;;;;;6.27;1.90;;;11.60;99.90;;;;;;5037734;28;20463;-75
2021/05/25 11:44:37;;;;;;;7.83;1.60;;;11.70;99.90;;;;;;5050535;28;20455;-75
2021/05/25 11:47:23;;;;;;;11.47;3.33;;;11.80;99.90;;;;;;5052566;28;20425;-75
2021/05/25 11:50:11;;;;;;;5.43;2.00;;;11.90;99.90;;;;;;5049902;28;20474;-75
2021/05/25 11:52:56;;;;;;;4.57;1.97;;;11.90;99.90;;;;;;5048351;28;20444;-75
2021/05/25 11:55:43;;;;;;;2.53;1.47;;;11.90;99.90;;;;;;5051533;28;20494;-74
2021/05/25 11:58:28;;;;;;;2.43;1.30;;;12.00;99.90;;;;;;5045903;28;20430;-75
2021/05/25 12:01:13;;;;;;;3.33;1.73;;;12.20;99.90;;;;;;5046967;28;20497;-75
2021/05/25 12:04:05;;;;;;;3.53;1.30;;;12.30;99.90;;;;;;5047616;28;20443;-75
2021/05/25 12:06:52;;;;;;;5.60;1.57;;;12.50;99.90;;;;;;5051402;28;20438;-73
2021/05/25 12:09:38;;;;;;;6.13;1.57;;;12.60;99.90;;;;;;5042405;28;20550;-75
2021/05/25 12:12:26;;;;;;;5.20;1.37;;;12.60;99.90;;;;;;5053542;28;20783;-74
2021/05/25 12:15:17;;;;;;;4.37;1.47;;;12.60;99.90;;;;;;5043689;28;21245;-74
2021/05/25 12:18:09;;;;;;;5.80;1.73;;;12.60;99.90;;;;;;5046046;28;20434;-75
2021/05/25 12:20:55;;;;;;;7.13;1.97;;;12.60;99.90;;;;;;5041926;28;20870;-74
2021/05/25 12:23:45;;;;;;;6.97;2.17;;;12.60;99.90;;;;;;5039871;28;20440;-74
2021/05/25 12:26:30;;;;;;;5.80;2.10;;;12.60;99.90;;;;;;5050651;28;20559;-75
2021/05/25 12:29:16;;;;;;;10.10;3.77;;;12.70;99.90;;;;;;5042563;28;20469;-74
2021/05/25 12:32:01;;;;;;;5.97;2.57;;;12.90;99.90;;;;;;5051969;28;21109;-75
2021/05/25 12:34:46;;;;;;;5.37;1.40;;;13.00;99.90;;;;;;5048195;28;20438;-75
2021/05/25 12:37:31;;;;;;;7.10;2.10;;;13.10;99.90;;;;;;5045899;28;20434;-74
2021/05/25 12:40:16;;;;;;;5.07;2.07;;;13.10;99.90;;;;;;5052545;28;20426;-75
2021/05/25 12:43:19;;;;;;;3.47;1.53;;;13.00;99.90;;;;;;5040439;28;20498;-75
2021/05/25 12:46:08;;;;;;;4.93;1.30;;;13.00;99.90;;;;;;5040322;28;20513;-75
2021/05/25 12:48:54;;;;;;;6.30;2.30;;;12.80;99.90;;;;;;5046093;28;21159;-75
2021/05/25 12:51:39;;;;;;;12.80;2.50;;;12.70;99.90;;;;;;5043193;28;20565;-75
2021/05/25 12:54:23;;;;;;;3.70;1.63;;;12.50;99.90;;;;;;5052626;28;20466;-75
2021/05/25 12:57:09;;;;;;;5.30;2.07;;;12.40;99.90;;;;;;5045861;28;21011;-74
2021/05/25 13:00:01;;;;;;;6.80;1.73;;;12.40;99.90;;;;;;5043714;28;20626;-75
2021/05/25 13:02:50;;;;;;;10.07;2.07;;;12.40;99.90;;;;;;5044413;28;20792;-73
2021/05/25 13:05:38;;;;;;;3.83;1.73;;;12.50;99.90;;;;;;5050702;28;20555;-75
2021/05/25 13:08:24;;;;;;;4.33;1.57;;;12.60;99.90;;;;;;5041646;28;20467;-75
2021/05/25 13:11:11;;;;;;;3.10;1.30;;;12.70;99.90;;;;;;5035902;28;21130;-75
2021/05/25 13:13:56;;;;;;;6.27;2.20;;;12.80;99.90;;;;;;5046444;28;20426;-75
2021/05/25 13:16:41;;;;;;;3.80;1.90;;;12.90;99.90;;;;;;5049931;28;20433;-75
2021/05/25 13:19:34;;;;;;;4.97;2.70;;;13.00;99.90;;;;;;5050001;28;20495;-75
2021/05/25 13:22:36;;;;;;;12.10;2.10;;;13.10;99.90;;;;;;5044192;28;20542;-75
2021/05/25 13:25:33;;;;;;;17.67;2.47;;;13.20;99.90;;;;;;5048407;28;20779;-74
2021/05/25 13:28:18;;;;;;;7.30;2.43;;;13.30;99.90;;;;;;5049274;28;20409;-75
2021/05/25 13:31:14;;;;;;;5.57;1.90;;;13.60;99.90;;;;;;5048936;28;20448;-75
2021/05/25 13:34:00;;;;;;;8.13;1.67;;;13.80;99.90;;;;;;5032005;28;21018;-74
2021/05/25 13:36:48;;;;;;;10.20;3.60;;;13.90;94.80;;;;;;5042919;28;20418;-74
2021/05/25 13:39:34;;;;;;;5.83;2.00;;;14.00;86.90;;;;;;5046667;28;20963;-74
2021/05/25 13:42:19;;;;;;;8.43;1.97;;;14.00;81.40;;;;;;5048841;28;20471;-74
2021/05/25 13:45:05;;;;;;;2.90;1.30;;;13.90;79.10;;;;;;5041903;28;20444;-75
2021/05/25 13:47:52;;;;;;;5.30;1.90;;;14.00;81.40;;;;;;5048560;28;20780;-75
2021/05/25 13:50:37;;;;;;;5.73;1.20;;;14.00;77.30;;;;;;5041568;28;20792;-74
2021/05/25 13:53:23;;;;;;;4.93;2.03;;;14.00;70.40;;;;;;5043293;28;20426;-73
2021/05/25 13:56:12;;;;;;;6.73;2.00;;;14.10;71.30;;;;;;5044146;28;20837;-74
2021/05/25 13:58:59;;;;;;;3.60;1.70;;;14.10;69.80;;;;;;5037561;28;20669;-75
2021/05/25 14:01:45;;;;;;;5.03;2.23;;;14.10;71.80;;;;;;5045934;28;20496;-75
2021/05/25 14:04:31;;;;;;;8.50;2.60;;;14.20;74.30;;;;;;5049853;28;20989;-75
2021/05/25 14:07:18;;;;;;;6.70;2.50;;;14.30;71.20;;;;;;5041111;28;20510;-75
2021/05/25 14:10:05;;;;;;;5.03;1.40;;;14.40;69.50;;;;;;5049930;28;20564;-75
2021/05/25 14:12:50;;;;;;;2.07;0.80;;;14.80;62.10;;;;;;5047791;28;20482;-75
2021/05/25 14:15:37;;;;;;;2.77;0.93;;;15.10;55.80;;;;;;5044901;28;20525;-71
2021/05/25 14:18:22;;;;;;;8.33;2.07;;;15.30;54.50;;;;;;5038789;28;20418;-73
2021/05/25 14:21:09;;;;;;;5.80;1.50;;;15.30;51.50;;;;;;5035851;28;20505;-73
2021/05/25 14:23:55;;;;;;;6.07;1.17;;;15.30;51.50;;;;;;5033066;28;20583;-73
2021/05/25 14:26:41;;;;;;;4.80;1.80;;;15.20;50.50;;;;;;5048833;28;20492;-73
2021/05/25 14:29:26;;;;;;;3.87;1.43;;;15.10;50.40;;;;;;5048574;28;21050;-73
2021/05/25 14:32:11;;;;;;;5.93;1.93;;;15.10;48.60;;;;;;5047049;28;20435;-72